createdAt,value
2018-07-27T00:01:04.323Z,17.27
2018-07-27T00:03:32.573Z,14.57
2018-07-27T00:06:01.139Z,16.00
2018-07-27T00:08:29.818Z,15.47
2018-07-27T00:10:58.404Z,14.93
2018-07-27T00:13:26.738Z,16.10
2018-07-27T00:15:55.276Z,17.63
2018-07-27T00:18:23.987Z,15.70
2018-07-27T00:20:52.539Z,15.43
2018-07-27T00:23:21.232Z,16.00
2018-07-27T00:25:49.880Z,15.53
2018-07-27T00:28:18.571Z,15.27
2018-07-27T00:30:47.133Z,18.77
2018-07-27T00:33:15.804Z,15.50
2018-07-27T00:35:44.448Z,15.40
2018-07-27T00:38:13.069Z,13.93
2018-07-27T00:40:41.572Z,16.00
2018-07-27T00:43:10.142Z,17.30
2018-07-27T00:45:38.775Z,15.60
2018-07-27T00:48:07.297Z,15.67
2018-07-27T00:50:35.868Z,14.77
2018-07-27T00:53:04.472Z,17.23
2018-07-27T00:55:33.021Z,17.97
2018-07-27T00:58:01.636Z,15.83
2018-07-27T01:00:30.191Z,15.33
2018-07-27T01:02:58.867Z,14.70
2018-07-27T01:05:27.386Z,15.90
2018-07-27T01:07:56.144Z,17.00
2018-07-27T01:10:24.685Z,15.30
2018-07-27T01:12:53.364Z,15.40
2018-07-27T01:15:21.890Z,16.93
2018-07-27T01:17:50.567Z,16.27
2018-07-27T01:20:19.118Z,17.67
2018-07-27T01:22:47.876Z,17.13
2018-07-27T01:25:16.365Z,28.87
2018-07-27T01:27:45.045Z,21.03
2018-07-27T01:30:13.538Z,23.13
2018-07-27T01:32:42.214Z,25.73
2018-07-27T01:35:10.703Z,20.83
2018-07-27T01:37:39.452Z,18.40
2018-07-27T01:40:08.302Z,21.40
2018-07-27T01:42:37.011Z,19.02
2018-07-27T01:45:06.227Z,17.37
2018-07-27T01:47:34.927Z,19.20
2018-07-27T01:50:03.462Z,17.50
2018-07-27T01:52:32.194Z,16.27
2018-07-27T01:55:00.727Z,18.97
2018-07-27T01:57:29.121Z,17.47
2018-07-27T01:59:57.642Z,15.10
2018-07-27T02:02:26.177Z,15.87
2018-07-27T02:04:54.844Z,18.93
2018-07-27T02:07:23.364Z,17.40
2018-07-27T02:09:52.015Z,15.40
2018-07-27T02:12:20.579Z,18.53
2018-07-27T02:14:49.317Z,15.60
2018-07-27T02:17:17.907Z,16.83
2018-07-27T02:19:46.588Z,17.03
2018-07-27T02:22:15.072Z,14.83
2018-07-27T02:24:43.759Z,16.07
2018-07-27T02:27:12.398Z,15.37
2018-07-27T02:29:41.107Z,15.40
2018-07-27T02:32:09.595Z,16.40
2018-07-27T02:34:38.376Z,17.40
2018-07-27T02:37:07.030Z,16.37
2018-07-27T02:39:35.786Z,15.43
2018-07-27T02:42:04.354Z,17.10
2018-07-27T02:44:33.091Z,15.80
2018-07-27T02:47:01.627Z,18.03
2018-07-27T02:49:30.300Z,15.63
2018-07-27T02:51:58.839Z,15.33
2018-07-27T02:54:27.550Z,15.63
2018-07-27T02:56:56.075Z,16.97
2018-07-27T02:59:24.765Z,17.23
2018-07-27T03:01:53.391Z,16.17
2018-07-27T03:04:21.771Z,17.30
2018-07-27T03:06:50.285Z,19.00
2018-07-27T03:09:18.953Z,18.40
2018-07-27T03:11:47.523Z,18.70
2018-07-27T03:14:16.195Z,20.10
2018-07-27T03:16:44.667Z,19.03
2018-07-27T03:19:13.357Z,19.50
2018-07-27T03:21:48.197Z,18.77
2018-07-27T03:24:16.842Z,20.60
2018-07-27T03:26:45.437Z,21.13
2018-07-27T03:29:13.742Z,19.70
2018-07-27T03:31:42.244Z,20.27
2018-07-27T03:34:11.045Z,20.90
2018-07-27T03:36:39.548Z,19.13
2018-07-27T03:39:09.766Z,21.10
2018-07-27T03:41:38.312Z,19.07
2018-07-27T03:44:06.994Z,19.50
2018-07-27T03:46:35.473Z,19.33
2018-07-27T03:49:04.159Z,19.30
2018-07-27T03:51:32.349Z,18.97
2018-07-27T03:54:01.001Z,22.27
2018-07-27T03:56:29.535Z,19.10
2018-07-27T03:59:04.551Z,19.17
2018-07-27T04:01:33.073Z,21.37
2018-07-27T04:04:01.395Z,21.53
2018-07-27T04:06:29.875Z,21.57
2018-07-27T04:08:58.538Z,21.30
2018-07-27T04:11:27.049Z,19.90
2018-07-27T04:13:55.759Z,18.90
2018-07-27T04:16:24.285Z,22.03
2018-07-27T04:18:52.962Z,20.67
2018-07-27T04:21:21.494Z,19.67
2018-07-27T04:23:49.842Z,20.00
2018-07-27T04:26:18.425Z,20.83
2018-07-27T04:28:47.027Z,20.40
2018-07-27T04:31:15.548Z,21.43
2018-07-27T04:33:44.201Z,21.97
2018-07-27T04:36:12.706Z,20.70
2018-07-27T04:38:41.399Z,21.63
2018-07-27T04:41:09.927Z,20.80
2018-07-27T04:43:38.697Z,20.13
2018-07-27T04:46:07.216Z,24.00
2018-07-27T04:48:35.887Z,19.93
2018-07-27T04:51:04.388Z,23.23
2018-07-27T04:53:33.139Z,21.47
2018-07-27T04:56:01.696Z,21.53
2018-07-27T04:58:30.410Z,22.03
2018-07-27T05:00:58.911Z,21.50
2018-07-27T05:03:27.536Z,22.17
2018-07-27T05:05:56.038Z,23.83
2018-07-27T05:08:24.729Z,21.27
2018-07-27T05:10:53.208Z,20.73
2018-07-27T05:13:22.109Z,20.63
2018-07-27T05:15:50.650Z,20.10
2018-07-27T05:18:19.413Z,20.77
2018-07-27T05:20:47.870Z,21.07
2018-07-27T05:23:16.504Z,21.47
2018-07-27T05:25:44.665Z,20.07
2018-07-27T05:28:13.172Z,18.23
2018-07-27T05:30:41.856Z,18.27
2018-07-27T05:33:10.346Z,20.27
2018-07-27T05:35:39.003Z,19.10
2018-07-27T05:38:07.499Z,17.47
2018-07-27T05:40:36.216Z,19.00
2018-07-27T05:43:04.738Z,17.40
2018-07-27T05:45:33.479Z,17.77
2018-07-27T05:48:01.683Z,18.37
2018-07-27T05:50:30.453Z,17.47
2018-07-27T05:52:58.992Z,17.07
2018-07-27T05:55:27.666Z,16.20
2018-07-27T05:57:56.180Z,17.17
2018-07-27T06:00:24.864Z,16.77
2018-07-27T06:02:53.530Z,16.97
2018-07-27T06:05:22.190Z,18.00
2018-07-27T06:07:50.696Z,17.03
2018-07-27T06:10:19.463Z,19.03
2018-07-27T06:12:47.988Z,16.77
2018-07-27T06:15:16.695Z,17.30
2018-07-27T06:17:44.920Z,16.83
2018-07-27T06:20:13.618Z,17.47
2018-07-27T06:22:42.159Z,17.57
2018-07-27T06:25:10.819Z,17.43
2018-07-27T06:27:39.374Z,16.70
2018-07-27T06:30:08.251Z,17.03
2018-07-27T06:32:36.807Z,19.07
2018-07-27T06:35:05.491Z,17.90
2018-07-27T06:37:34.061Z,16.47
2018-07-27T06:40:02.790Z,15.27
2018-07-27T06:42:31.437Z,15.17
2018-07-27T06:44:59.750Z,14.73
2018-07-27T06:47:28.285Z,13.87
2018-07-27T06:49:56.886Z,14.60
2018-07-27T06:52:25.440Z,13.73
2018-07-27T06:54:54.148Z,13.27
2018-07-27T06:57:22.642Z,13.47
2018-07-27T06:59:51.489Z,13.17
2018-07-27T07:02:20.673Z,12.97
2018-07-27T07:04:57.079Z,15.17
2018-07-27T07:07:30.244Z,15.37
